﻿<?xml version="1.0" encoding="UTF-8"?>
<gpx xmlns="http://www.topografix.com/GPX/1/1" creator="HOLUX ezTour Plus" version="1.1">
<metadata>
<link href="http://www.holux.com"><text>HOLUX Technology, Inc.</text></link>
<time>2013-01-04T18:12:18Z</time></metadata>
<trk>
<name><![CDATA[Holux2013/04/16_11:31]]></name>
<trkseg>
<trkpt lat="-12.547453880" lon="131.085952759">
<ele>102.091957</ele>
<time>2013-04-16T02:01:36Z</time>
<speed>0.070000</speed>
<extensions>
<speed>0.1</speed>
<temp>0.00</temp>
<bpm>0</bpm>
<rpm>0.00</rpm>
</extensions>
</trkpt>
<trkpt lat="-12.549047470" lon="131.086105347">
<ele>53.583088</ele>
<time>2013-04-16T02:03:36Z</time>
<speed>0.120000</speed>
<extensions>
<speed>0.1</speed>
<temp>0.00</temp>
<bpm>0</bpm>
<rpm>0.00</rpm>
</extensions>
</trkpt>
<trkpt lat="-12.545241356" lon="131.083847046">
<ele>37.396564</ele>
<time>2013-04-16T02:05:36Z</time>
<speed>7.290000</speed>
<extensions>
<speed>7.3</speed>
<temp>0.00</temp>
<bpm>0</bpm>
<rpm>0.00</rpm>
</extensions>
</trkpt>
<trkpt lat="-12.541633606" lon="131.079421997">
<ele>13.342305</ele>
<time>2013-04-16T02:07:36Z</time>
<speed>7.420000</speed>
<extensions>
<speed>7.4</speed>
<temp>0.00</temp>
<bpm>0</bpm>
<rpm>0.00</rpm>
</extensions>
</trkpt>
<trkpt lat="-12.533077240" lon="131.079406738">
<ele>8.839620</ele>
<time>2013-04-16T02:09:36Z</time>
<speed>7.970000</speed>
<extensions>
<speed>8.0</speed>
<temp>0.00</temp>
<bpm>0</bpm>
<rpm>0.00</rpm>
</extensions>
</trkpt>
<trkpt lat="-12.525582314" lon="131.077972412">
<ele>13.216817</ele>
<time>2013-04-16T02:11:36Z</time>
<speed>7.950000</speed>
<extensions>
<speed>8.0</speed>
<temp>0.00</temp>
<bpm>0</bpm>
<rpm>0.00</rpm>
</extensions>
</trkpt>
<trkpt lat="-12.525652885" lon="131.069656372">
<ele>16.459024</ele>
<time>2013-04-16T02:13:36Z</time>
<speed>7.540000</speed>
<extensions>
<speed>7.5</speed>
<temp>0.00</temp>
<bpm>0</bpm>
<rpm>0.00</rpm>
</extensions>
</trkpt>
<trkpt lat="-12.520229340" lon="131.066635132">
<ele>10.912374</ele>
<time>2013-04-16T02:15:36Z</time>
<speed>8.210000</speed>
<extensions>
<speed>8.2</speed>
<temp>0.00</temp>
<bpm>0</bpm>
<rpm>0.00</rpm>
</extensions>
</trkpt>
<trkpt lat="-12.516892433" lon="131.061828613">
<ele>27.250040</ele>
<time>2013-04-16T02:17:36Z</time>
<speed>6.950000</speed>
<extensions>
<speed>7.0</speed>
<temp>0.00</temp>
<bpm>0</bpm>
<rpm>0.00</rpm>
</extensions>
</trkpt>
<trkpt lat="-12.511495590" lon="131.059036255">
<ele>26.613810</ele>
<time>2013-04-16T02:19:36Z</time>
<speed>9.550000</speed>
<extensions>
<speed>9.6</speed>
<temp>0.00</temp>
<bpm>0</bpm>
<rpm>0.00</rpm>
</extensions>
</trkpt>
<trkpt lat="-12.503978729" lon="131.056259155">
<ele>26.761271</ele>
<time>2013-04-16T02:21:36Z</time>
<speed>6.500000</speed>
<extensions>
<speed>6.5</speed>
<temp>0.00</temp>
<bpm>0</bpm>
<rpm>0.00</rpm>
</extensions>
</trkpt>
<trkpt lat="-12.503985405" lon="131.048965454">
<ele>50.109455</ele>
<time>2013-04-16T02:23:36Z</time>
<speed>7.090000</speed>
<extensions>
<speed>7.1</speed>
<temp>0.00</temp>
<bpm>0</bpm>
<rpm>0.00</rpm>
</extensions>
</trkpt>
<trkpt lat="-12.500574112" lon="131.044204712">
<ele>47.029377</ele>
<time>2013-04-16T02:25:36Z</time>
<speed>7.970000</speed>
<extensions>
<speed>8.0</speed>
<temp>0.00</temp>
<bpm>0</bpm>
<rpm>0.00</rpm>
</extensions>
</trkpt>
<trkpt lat="-12.496341705" lon="131.039932251">
<ele>45.389729</ele>
<time>2013-04-16T02:27:36Z</time>
<speed>7.850000</speed>
<extensions>
<speed>7.9</speed>
<temp>0.00</temp>
<bpm>0</bpm>
<rpm>0.00</rpm>
</extensions>
</trkpt>
<trkpt lat="-12.496359825" lon="131.031723022">
<ele>49.092854</ele>
<time>2013-04-16T02:29:36Z</time>
<speed>7.050000</speed>
<extensions>
<speed>7.0</speed>
<temp>0.00</temp>
<bpm>0</bpm>
<rpm>0.00</rpm>
</extensions>
</trkpt>
<trkpt lat="-12.496187210" lon="131.023712158">
<ele>49.661213</ele>
<time>2013-04-16T02:31:36Z</time>
<speed>7.820000</speed>
<extensions>
<speed>7.8</speed>
<temp>0.00</temp>
<bpm>0</bpm>
<rpm>0.00</rpm>
</extensions>
</trkpt>
<trkpt lat="-12.491751671" lon="131.017745972">
<ele>45.297932</ele>
<time>2013-04-16T02:33:36Z</time>
<speed>7.840000</speed>
<extensions>
<speed>7.8</speed>
<temp>0.00</temp>
<bpm>0</bpm>
<rpm>0.00</rpm>
</extensions>
</trkpt>
<trkpt lat="-12.485320091" lon="131.010818481">
<ele>27.333536</ele>
<time>2013-04-16T02:35:36Z</time>
<speed>8.700000</speed>
<extensions>
<speed>8.7</speed>
<temp>0.00</temp>
<bpm>0</bpm>
<rpm>0.00</rpm>
</extensions>
</trkpt>
<trkpt lat="-12.479848862" lon="131.004226685">
<ele>32.237385</ele>
<time>2013-04-16T02:37:36Z</time>
<speed>6.950000</speed>
<extensions>
<speed>7.0</speed>
<temp>0.00</temp>
<bpm>0</bpm>
<rpm>0.00</rpm>
</extensions>
</trkpt>
<trkpt lat="-12.474277496" lon="130.998931885">
<ele>43.338947</ele>
<time>2013-04-16T02:39:36Z</time>
<speed>6.630000</speed>
<extensions>
<speed>6.6</speed>
<temp>0.00</temp>
<bpm>0</bpm>
<rpm>0.00</rpm>
</extensions>
</trkpt>
<trkpt lat="-12.469038963" lon="130.991531372">
<ele>34.956135</ele>
<time>2013-04-16T02:41:36Z</time>
<speed>7.840000</speed>
<extensions>
<speed>7.8</speed>
<temp>0.00</temp>
<bpm>0</bpm>
<rpm>0.00</rpm>
</extensions>
</trkpt>
<trkpt lat="-12.449820518" lon="130.963562012">
<ele>30.542032</ele>
<time>2013-04-16T02:49:36Z</time>
<speed>7.700000</speed>
<extensions>
<speed>7.7</speed>
<temp>0.00</temp>
<bpm>0</bpm>
<rpm>0.00</rpm>
</extensions>
</trkpt>
<trkpt lat="-12.445518494" lon="130.956420898">
<ele>32.698322</ele>
<time>2013-04-16T02:51:36Z</time>
<speed>7.670000</speed>
<extensions>
<speed>7.7</speed>
<temp>0.00</temp>
<bpm>0</bpm>
<rpm>0.00</rpm>
</extensions>
</trkpt>
<trkpt lat="-12.428879738" lon="130.911743164">
<ele>39.505939</ele>
<time>2013-04-16T03:03:36Z</time>
<speed>6.990000</speed>
<extensions>
<speed>7.0</speed>
<temp>0.00</temp>
<bpm>0</bpm>
<rpm>0.00</rpm>
</extensions>
</trkpt>
<trkpt lat="-12.426475525" lon="130.903747559">
<ele>30.790567</ele>
<time>2013-04-16T03:05:36Z</time>
<speed>7.340000</speed>
<extensions>
<speed>7.3</speed>
<temp>0.00</temp>
<bpm>0</bpm>
<rpm>0.00</rpm>
</extensions>
</trkpt>
<trkpt lat="-12.425226212" lon="130.886947632">
<ele>29.290079</ele>
<time>2013-04-16T03:09:36Z</time>
<speed>7.900000</speed>
<extensions>
<speed>7.9</speed>
<temp>0.00</temp>
<bpm>0</bpm>
<rpm>0.00</rpm>
</extensions>
</trkpt>
<trkpt lat="-12.424996376" lon="130.878524780">
<ele>32.476643</ele>
<time>2013-04-16T03:11:36Z</time>
<speed>7.600000</speed>
<extensions>
<speed>7.6</speed>
<temp>0.00</temp>
<bpm>0</bpm>
<rpm>0.00</rpm>
</extensions>
</trkpt>
<trkpt lat="-12.425143242" lon="130.870025635">
<ele>26.512735</ele>
<time>2013-04-16T03:13:36Z</time>
<speed>7.520000</speed>
<extensions>
<speed>7.5</speed>
<temp>0.00</temp>
<bpm>0</bpm>
<rpm>0.00</rpm>
</extensions>
</trkpt>
<trkpt lat="-12.426849365" lon="130.864624023">
<ele>20.640665</ele>
<time>2013-04-16T03:15:36Z</time>
<speed>0.010000</speed>
<extensions>
<speed>0.0</speed>
<temp>0.00</temp>
<bpm>0</bpm>
<rpm>0.00</rpm>
</extensions>
</trkpt>
<trkpt lat="-12.427875519" lon="130.860580444">
<ele>15.841084</ele>
<time>2013-04-16T03:17:36Z</time>
<speed>6.080000</speed>
<extensions>
<speed>6.1</speed>
<temp>0.00</temp>
<bpm>0</bpm>
<rpm>0.00</rpm>
</extensions>
</trkpt>
<trkpt lat="-12.430242538" lon="130.859008789">
<ele>12.859395</ele>
<time>2013-04-16T03:19:36Z</time>
<speed>11.500000</speed>
<extensions>
<speed>11.5</speed>
<temp>0.00</temp>
<bpm>0</bpm>
<rpm>0.00</rpm>
</extensions>
</trkpt>
<trkpt lat="-12.429502487" lon="130.862228394">
<ele>24.213907</ele>
<time>2013-04-16T03:21:36Z</time>
<speed>0.360000</speed>
<extensions>
<speed>0.4</speed>
<temp>0.00</temp>
<bpm>0</bpm>
<rpm>0.00</rpm>
</extensions>
</trkpt>
<trkpt lat="-12.429636955" lon="130.862243652">
<ele>29.189493</ele>
<time>2013-04-16T03:23:36Z</time>
<speed>0.200000</speed>
<extensions>
<speed>0.2</speed>
<temp>0.00</temp>
<bpm>0</bpm>
<rpm>0.00</rpm>
</extensions>
</trkpt>
<trkpt lat="-12.429399490" lon="130.862380981">
<ele>32.580158</ele>
<time>2013-04-16T03:25:36Z</time>
<speed>0.510000</speed>
<extensions>
<speed>0.5</speed>
<temp>0.00</temp>
<bpm>0</bpm>
<rpm>0.00</rpm>
</extensions>
</trkpt>
<trkpt lat="-12.429508209" lon="130.862197876">
<ele>34.384846</ele>
<time>2013-04-16T03:27:36Z</time>
<speed>0.040000</speed>
<extensions>
<speed>0.0</speed>
<temp>0.00</temp>
<bpm>0</bpm>
<rpm>0.00</rpm>
</extensions>
</trkpt>
<trkpt lat="-12.429461479" lon="130.862182617">
<ele>38.774494</ele>
<time>2013-04-16T03:29:36Z</time>
<speed>0.490000</speed>
<extensions>
<speed>0.5</speed>
<temp>0.00</temp>
<bpm>0</bpm>
<rpm>0.00</rpm>
</extensions>
</trkpt>
<trkpt lat="-12.429656982" lon="130.862396240">
<ele>34.539143</ele>
<time>2013-04-16T03:35:36Z</time>
<speed>0.120000</speed>
<extensions>
<speed>0.1</speed>
<temp>0.00</temp>
<bpm>0</bpm>
<rpm>0.00</rpm>
</extensions>
</trkpt>
<trkpt lat="-12.429538727" lon="130.862152100">
<ele>28.177286</ele>
<time>2013-04-16T03:41:36Z</time>
<speed>0.060000</speed>
<extensions>
<speed>0.1</speed>
<temp>0.00</temp>
<bpm>0</bpm>
<rpm>0.00</rpm>
</extensions>
</trkpt>
<trkpt lat="-12.429549217" lon="130.862304688">
<ele>40.663166</ele>
<time>2013-04-16T03:47:36Z</time>
<speed>0.010000</speed>
<extensions>
<speed>0.0</speed>
<temp>0.00</temp>
<bpm>0</bpm>
<rpm>0.00</rpm>
</extensions>
</trkpt>
<trkpt lat="-12.427578926" lon="130.862808228">
<ele>45.967854</ele>
<time>2013-04-16T03:49:36Z</time>
<speed>5.720000</speed>
<extensions>
<speed>5.7</speed>
<temp>0.00</temp>
<bpm>0</bpm>
<rpm>0.00</rpm>
</extensions>
</trkpt>
<trkpt lat="-12.429457664" lon="130.861953735">
<ele>74.228676</ele>
<time>2013-04-16T03:51:36Z</time>
<speed>0.820000</speed>
<extensions>
<speed>0.8</speed>
<temp>0.00</temp>
<bpm>0</bpm>
<rpm>0.00</rpm>
</extensions>
</trkpt>
<trkpt lat="-12.429397583" lon="130.862030029">
<ele>57.518635</ele>
<time>2013-04-16T03:53:36Z</time>
<speed>0.230000</speed>
<extensions>
<speed>0.2</speed>
<temp>0.00</temp>
<bpm>0</bpm>
<rpm>0.00</rpm>
</extensions>
</trkpt>
<trkpt lat="-12.429504395" lon="130.862335205">
<ele>57.990314</ele>
<time>2013-04-16T03:55:36Z</time>
<speed>0.240000</speed>
<extensions>
<speed>0.2</speed>
<temp>0.00</temp>
<bpm>0</bpm>
<rpm>0.00</rpm>
</extensions>
</trkpt>
<trkpt lat="-12.429450035" lon="130.862152100">
<ele>49.916096</ele>
<time>2013-04-16T03:57:36Z</time>
<speed>0.300000</speed>
<extensions>
<speed>0.3</speed>
<temp>0.00</temp>
<bpm>0</bpm>
<rpm>0.00</rpm>
</extensions>
</trkpt>
<trkpt lat="-12.429778099" lon="130.862228394">
<ele>3.158696</ele>
<time>2013-04-16T04:01:36Z</time>
<extensions>
<speed>0.0</speed>
<temp>0.00</temp>
<bpm>0</bpm>
<rpm>0.00</rpm>
</extensions>
</trkpt>
<trkpt lat="-12.429645538" lon="130.862182617">
<ele>5.559580</ele>
<time>2013-04-16T04:03:36Z</time>
<speed>0.130000</speed>
<extensions>
<speed>0.1</speed>
<temp>0.00</temp>
<bpm>0</bpm>
<rpm>0.00</rpm>
</extensions>
</trkpt>
<trkpt lat="-12.429671288" lon="130.862335205">
<ele>17.618204</ele>
<time>2013-04-16T04:07:36Z</time>
<speed>0.420000</speed>
<extensions>
<speed>0.4</speed>
<temp>0.00</temp>
<bpm>0</bpm>
<rpm>0.00</rpm>
</extensions>
</trkpt>
<trkpt lat="-12.429523468" lon="130.862197876">
<ele>14.551534</ele>
<time>2013-04-16T04:11:36Z</time>
<speed>0.160000</speed>
<extensions>
<speed>0.2</speed>
<temp>0.00</temp>
<bpm>0</bpm>
<rpm>0.00</rpm>
</extensions>
</trkpt>
<trkpt lat="-12.429453850" lon="130.862274170">
<ele>23.467325</ele>
<time>2013-04-16T04:13:36Z</time>
<speed>0.260000</speed>
<extensions>
<speed>0.3</speed>
<temp>0.00</temp>
<bpm>0</bpm>
<rpm>0.00</rpm>
</extensions>
</trkpt>
<trkpt lat="-12.428600311" lon="130.864105225">
<ele>14.069356</ele>
<time>2013-04-16T04:15:36Z</time>
<speed>7.080000</speed>
<extensions>
<speed>7.1</speed>
<temp>0.00</temp>
<bpm>0</bpm>
<rpm>0.00</rpm>
</extensions>
</trkpt>
<trkpt lat="-12.426846504" lon="130.869537354">
<ele>21.924356</ele>
<time>2013-04-16T04:17:36Z</time>
<speed>6.570000</speed>
<extensions>
<speed>6.6</speed>
<temp>0.00</temp>
<bpm>0</bpm>
<rpm>0.00</rpm>
</extensions>
</trkpt>
<trkpt lat="-12.425080299" lon="130.873199463">
<ele>27.094278</ele>
<time>2013-04-16T04:19:36Z</time>
<speed>7.240000</speed>
<extensions>
<speed>7.2</speed>
<temp>0.00</temp>
<bpm>0</bpm>
<rpm>0.00</rpm>
</extensions>
</trkpt>
<trkpt lat="-12.424943924" lon="130.882003784">
<ele>30.821329</ele>
<time>2013-04-16T04:21:36Z</time>
<speed>8.580000</speed>
<extensions>
<speed>8.6</speed>
<temp>0.00</temp>
<bpm>0</bpm>
<rpm>0.00</rpm>
</extensions>
</trkpt>
<trkpt lat="-12.425558090" lon="130.891433716">
<ele>28.999063</ele>
<time>2013-04-16T04:23:36Z</time>
<speed>8.610000</speed>
<extensions>
<speed>8.6</speed>
<temp>0.00</temp>
<bpm>0</bpm>
<rpm>0.00</rpm>
</extensions>
</trkpt>
<trkpt lat="-12.426257133" lon="130.900634766">
<ele>31.733927</ele>
<time>2013-04-16T04:25:36Z</time>
<speed>8.090000</speed>
<extensions>
<speed>8.1</speed>
<temp>0.00</temp>
<bpm>0</bpm>
<rpm>0.00</rpm>
</extensions>
</trkpt>
<trkpt lat="-12.427937508" lon="130.909286499">
<ele>36.795979</ele>
<time>2013-04-16T04:27:36Z</time>
<speed>8.360000</speed>
<extensions>
<speed>8.4</speed>
<temp>0.00</temp>
<bpm>0</bpm>
<rpm>0.00</rpm>
</extensions>
</trkpt>
<trkpt lat="-12.443591118" lon="130.951354980">
<ele>39.266682</ele>
<time>2013-04-16T04:37:36Z</time>
<speed>7.480000</speed>
<extensions>
<speed>7.5</speed>
<temp>0.00</temp>
<bpm>0</bpm>
<rpm>0.00</rpm>
</extensions>
</trkpt>
<trkpt lat="-12.446692467" lon="130.959030151">
<ele>37.140705</ele>
<time>2013-04-16T04:39:36Z</time>
<speed>8.250000</speed>
<extensions>
<speed>8.3</speed>
<temp>0.00</temp>
<bpm>0</bpm>
<rpm>0.00</rpm>
</extensions>
</trkpt>
<trkpt lat="-12.456777573" lon="130.973724365">
<ele>32.622150</ele>
<time>2013-04-16T04:43:36Z</time>
<speed>8.130000</speed>
<extensions>
<speed>8.1</speed>
<temp>0.00</temp>
<bpm>0</bpm>
<rpm>0.00</rpm>
</extensions>
</trkpt>
<trkpt lat="-12.461665154" lon="130.980697632">
<ele>34.442463</ele>
<time>2013-04-16T04:45:36Z</time>
<speed>8.030000</speed>
<extensions>
<speed>8.0</speed>
<temp>0.00</temp>
<bpm>0</bpm>
<rpm>0.00</rpm>
</extensions>
</trkpt>
<trkpt lat="-12.470566750" lon="130.993774414">
<ele>46.545979</ele>
<time>2013-04-16T04:49:36Z</time>
<speed>7.400000</speed>
<extensions>
<speed>7.4</speed>
<temp>0.00</temp>
<bpm>0</bpm>
<rpm>0.00</rpm>
</extensions>
</trkpt>
<trkpt lat="-12.475765228" lon="131.000335693">
<ele>43.794025</ele>
<time>2013-04-16T04:51:36Z</time>
<speed>8.170000</speed>
<extensions>
<speed>8.2</speed>
<temp>0.00</temp>
<bpm>0</bpm>
<rpm>0.00</rpm>
</extensions>
</trkpt>
<trkpt lat="-12.482544899" lon="131.007217407">
<ele>31.038126</ele>
<time>2013-04-16T04:53:36Z</time>
<speed>9.160000</speed>
<extensions>
<speed>9.2</speed>
<temp>0.00</temp>
<bpm>0</bpm>
<rpm>0.00</rpm>
</extensions>
</trkpt>
<trkpt lat="-12.492391586" lon="131.019180298">
<ele>55.507893</ele>
<time>2013-04-16T04:57:36Z</time>
<speed>7.680000</speed>
<extensions>
<speed>7.7</speed>
<temp>0.00</temp>
<bpm>0</bpm>
<rpm>0.00</rpm>
</extensions>
</trkpt>
<trkpt lat="-12.496284485" lon="131.027450562">
<ele>58.286213</ele>
<time>2013-04-16T04:59:36Z</time>
<speed>7.870000</speed>
<extensions>
<speed>7.9</speed>
<temp>0.00</temp>
<bpm>0</bpm>
<rpm>0.00</rpm>
</extensions>
</trkpt>
<trkpt lat="-12.496304512" lon="131.036453247">
<ele>45.230549</ele>
<time>2013-04-16T05:01:36Z</time>
<speed>7.700000</speed>
<extensions>
<speed>7.7</speed>
<temp>0.00</temp>
<bpm>0</bpm>
<rpm>0.00</rpm>
</extensions>
</trkpt>
<trkpt lat="-12.496993065" lon="131.044586182">
<ele>44.252033</ele>
<time>2013-04-16T05:05:36Z</time>
<extensions>
<speed>0.0</speed>
<temp>0.00</temp>
<bpm>0</bpm>
<rpm>0.00</rpm>
</extensions>
</trkpt>
<trkpt lat="-12.497408867" lon="131.044296265">
<ele>47.157307</ele>
<time>2013-04-16T05:15:36Z</time>
<speed>5.910000</speed>
<extensions>
<speed>5.9</speed>
<temp>0.00</temp>
<bpm>0</bpm>
<rpm>0.00</rpm>
</extensions>
</trkpt>
<trkpt lat="-12.503978729" lon="131.045364380">
<ele>53.601643</ele>
<time>2013-04-16T05:17:36Z</time>
<speed>7.090000</speed>
<extensions>
<speed>7.1</speed>
<temp>0.00</temp>
<bpm>0</bpm>
<rpm>0.00</rpm>
</extensions>
</trkpt>
<trkpt lat="-12.503938675" lon="131.054550171">
<ele>43.127033</ele>
<time>2013-04-16T05:19:36Z</time>
<speed>9.390000</speed>
<extensions>
<speed>9.4</speed>
<temp>0.00</temp>
<bpm>0</bpm>
<rpm>0.00</rpm>
</extensions>
</trkpt>
<trkpt lat="-12.508332253" lon="131.059082031">
<ele>40.766682</ele>
<time>2013-04-16T05:21:36Z</time>
<speed>7.520000</speed>
<extensions>
<speed>7.5</speed>
<temp>0.00</temp>
<bpm>0</bpm>
<rpm>0.00</rpm>
</extensions>
</trkpt>
<trkpt lat="-12.509769440" lon="131.066680908">
<ele>44.182697</ele>
<time>2013-04-16T05:23:36Z</time>
<speed>7.800000</speed>
<extensions>
<speed>7.8</speed>
<temp>0.00</temp>
<bpm>0</bpm>
<rpm>0.00</rpm>
</extensions>
</trkpt>
<trkpt lat="-12.519492149" lon="131.066665649">
<ele>40.430744</ele>
<time>2013-04-16T05:25:36Z</time>
<speed>8.300000</speed>
<extensions>
<speed>8.3</speed>
<temp>0.00</temp>
<bpm>0</bpm>
<rpm>0.00</rpm>
</extensions>
</trkpt>
<trkpt lat="-12.525596619" lon="131.069244385">
<ele>49.106525</ele>
<time>2013-04-16T05:27:36Z</time>
<speed>8.550000</speed>
<extensions>
<speed>8.6</speed>
<temp>0.00</temp>
<bpm>0</bpm>
<rpm>0.00</rpm>
</extensions>
</trkpt>
<trkpt lat="-12.525604248" lon="131.078521729">
<ele>45.463947</ele>
<time>2013-04-16T05:29:36Z</time>
<speed>8.200000</speed>
<extensions>
<speed>8.2</speed>
<temp>0.00</temp>
<bpm>0</bpm>
<rpm>0.00</rpm>
</extensions>
</trkpt>
<trkpt lat="-12.532992363" lon="131.079437256">
<ele>48.405354</ele>
<time>2013-04-16T05:31:36Z</time>
<speed>7.110000</speed>
<extensions>
<speed>7.1</speed>
<temp>0.00</temp>
<bpm>0</bpm>
<rpm>0.00</rpm>
</extensions>
</trkpt>
<trkpt lat="-12.540927887" lon="131.079452515">
<ele>53.396564</ele>
<time>2013-04-16T05:33:36Z</time>
<speed>7.850000</speed>
<extensions>
<speed>7.9</speed>
<temp>0.00</temp>
<bpm>0</bpm>
<rpm>0.00</rpm>
</extensions>
</trkpt>
<trkpt lat="-12.544934273" lon="131.083923340">
<ele>52.153400</ele>
<time>2013-04-16T05:35:36Z</time>
<speed>6.590000</speed>
<extensions>
<speed>6.6</speed>
<temp>0.00</temp>
<bpm>0</bpm>
<rpm>0.00</rpm>
</extensions>
</trkpt>
<trkpt lat="-12.549081802" lon="131.086181641">
<ele>53.336018</ele>
<time>2013-04-16T05:37:36Z</time>
<speed>2.210000</speed>
<extensions>
<speed>2.2</speed>
<temp>0.00</temp>
<bpm>0</bpm>
<rpm>0.00</rpm>
</extensions>
</trkpt>
<trkpt lat="-12.547640800" lon="131.086257935">
<ele>78.996254</ele>
<time>2013-04-16T05:39:36Z</time>
<speed>0.110000</speed>
<extensions>
<speed>0.1</speed>
<temp>0.00</temp>
<bpm>0</bpm>
<rpm>0.00</rpm>
</extensions>
</trkpt>
<trkpt lat="-12.547815323" lon="131.086135864">
<ele>58.623127</ele>
<time>2013-04-16T05:43:36Z</time>
<speed>0.160000</speed>
<extensions>
<speed>0.2</speed>
<temp>0.00</temp>
<bpm>0</bpm>
<rpm>0.00</rpm>
</extensions>
</trkpt>
<trkpt lat="-12.547772408" lon="131.085968018">
<ele>44.086994</ele>
<time>2013-04-16T05:45:36Z</time>
<speed>0.450000</speed>
<extensions>
<speed>0.5</speed>
<temp>0.00</temp>
<bpm>0</bpm>
<rpm>0.00</rpm>
</extensions>
</trkpt>
<trkpt lat="-12.547831535" lon="131.086135864">
<ele>35.878010</ele>
<time>2013-04-16T05:47:36Z</time>
<speed>0.340000</speed>
<extensions>
<speed>0.3</speed>
<temp>0.00</temp>
<bpm>0</bpm>
<rpm>0.00</rpm>
</extensions>
</trkpt>
<trkpt lat="-12.547708511" lon="131.086105347">
<ele>52.670979</ele>
<time>2013-04-16T05:49:36Z</time>
<speed>0.150000</speed>
<extensions>
<speed>0.2</speed>
<temp>0.00</temp>
<bpm>0</bpm>
<rpm>0.00</rpm>
</extensions>
</trkpt>
<trkpt lat="-12.547715187" lon="131.086029053">
<ele>54.092854</ele>
<time>2013-04-16T05:51:36Z</time>
<speed>0.120000</speed>
<extensions>
<speed>0.1</speed>
<temp>0.00</temp>
<bpm>0</bpm>
<rpm>0.00</rpm>
</extensions>
</trkpt>
</trkseg>
</trk>
</gpx>